Terminal Aerodrome Forecast
Issued by NWS

Home | Current Version | Previous Version | Text Only | Print | Product List | Glossary On
Versions: 1 2 3 4 5 6 7 8 9 10 11 12 13
927
FTUS41 KPBZ 262326
TAFBVI
TAF
KBVI 262326Z 2700/2724 21006KT P6SM SCT080
     FM271000 21004KT 3SM BR BKN090
     FM271300 22005KT P6SM BKN040
     FM272000 23005KT P6SM BKN040
      AMD NOT SKED 2702/2712=

USA.gov is the U.S. government's official web portal to all federal, state and local government web resources and services.